Blue Galaxy — SWDA — position and weather

sailwx.info

Track history (hours):
 
Tides and Currents Weather Stations Pressure Air Temp Water Temp Dewpoint Dewpoint Depression Visibility Wind Speed Wind Dir Waves Ship Positions

Blue Galaxy

Last reported at 2016-Aug-24 17:33 UTC. Time now 2016-Aug-24 17:56 UTC.
Position N 37°57' E 023°38'.

Length 192 m; draft 6.7 m.

Type: Passenger vessel. MMSI: 239672000.

Date/timePositionNaut miles runAvg speedWind from/ knotsBaromVisibWave heightAir tempDewpointWater temp
2016-Aug-24 17:33N 37°57' E 023°38'0 0.3
2016-Aug-24 16:34N 37°57' E 023°38'1716.9
2016-Aug-24 15:33N 37°41' E 023°45'25 1.4
2016-Aug-23 21:20N 37°16' E 023°49'1620.6
2016-Aug-23 20:33N 37°32' E 023°45'2020.4
2016-Aug-23 19:34N 37°51' E 023°37'6 6.0
2016-Aug-23 18:33N 37°57' E 023°38'0 0.0
2016-Aug-23 17:33N 37°57' E 023°38'0 0.0
2016-Aug-23 16:33N 37°57' E 023°38'0 0.0
2016-Aug-23 15:33N 37°57' E 023°38'0 0.0
2016-Aug-23 14:33N 37°57' E 023°38'0 0.0
2016-Aug-23 13:33N 37°57' E 023°38'0 0.0
2016-Aug-23 12:33N 37°57' E 023°38'0 0.0
2016-Aug-23 11:33N 37°57' E 023°38'0 0.0
2016-Aug-23 10:33N 37°57' E 023°38'0 0.0
2016-Aug-23 09:33N 37°57' E 023°38'0 0.0
2016-Aug-23 08:33N 37°57' E 023°38'0 0.0
2016-Aug-23 07:33N 37°57' E 023°38'0 0.0
2016-Aug-23 06:33N 37°57' E 023°38'0 0.0
2016-Aug-23 05:33N 37°57' E 023°38'0 0.0
2016-Aug-23 04:33N 37°57' E 023°38'0 0.0
2016-Aug-23 03:33N 37°57' E 023°38'7 6.7
2016-Aug-23 02:34N 37°50' E 023°40'2020.1
2016-Aug-23 01:33N 37°31' E 023°48'2120.7
2016-Aug-23 00:31N 37°10' E 023°51'2020.3
2016-Aug-22 23:31N 36°50' E 023°56'26 1.0
2016-Aug-21 21:23N 37°15' E 023°49'1720.2
2016-Aug-21 20:34N 37°31' E 023°45'2020.2
2016-Aug-21 19:34N 37°50' E 023°37'7 6.6
2016-Aug-21 18:33N 37°57' E 023°38'0 0.0
2016-Aug-21 17:33N 37°57' E 023°38'0 0.0
2016-Aug-21 16:33N 37°57' E 023°38'1313.1
2016-Aug-21 15:33N 37°44' E 023°43'2322.3
2016-Aug-21 14:32N 37°22' E 023°49'6 0.4
2016-Aug-20 21:20N 37°16' E 023°49'1620.5
2016-Aug-20 20:33N 37°32' E 023°45'2019.9
2016-Aug-20 19:33N 37°50' E 023°36'7 6.6
2016-Aug-20 18:33N 37°57' E 023°38'0 0.0
2016-Aug-20 17:33N 37°57' E 023°38'0 0.0
2016-Aug-20 16:33N 37°57' E 023°38'1414.3
2016-Aug-20 15:33N 37°43' E 023°44'2222.3
2016-Aug-20 14:33N 37°21' E 023°50'70 5.0
2016-Aug-20 00:33N 36°12' E 024°04'2121.0
2016-Aug-19 23:33N 36°33' E 023°60'2420.9
2016-Aug-19 22:24N 36°56' E 023°54'1821.4
2016-Aug-19 21:33N 37°14' E 023°50'2121.0
2016-Aug-19 20:33N 37°35' E 023°44'2020.1
2016-Aug-19 19:33N 37°54' E 023°37'3 3.0
2016-Aug-19 18:33N 37°57' E 023°38'0 0.0
2016-Aug-19 17:33N 37°57' E 023°38'0 0.0
2016-Aug-19 16:33N 37°57' E 023°38'1313.1
2016-Aug-19 15:33N 37°44' E 023°43'2322.7
2016-Aug-19 14:32N 37°21' E 023°50'2322.0
2016-Aug-19 13:29N 36°59' E 023°54'89 8.2
2016-Aug-19 02:33N 35°31' E 024°13'2120.0
2016-Aug-19 01:29N 35°52' E 024°12'1920.6
2016-Aug-19 00:33N 36°11' E 024°06'2020.6
2016-Aug-18 23:33N 36°31' E 024°01'2020.6
2016-Aug-18 22:33N 36°51' E 023°55'2121.4
2016-Aug-18 21:33N 37°12' E 023°50'2120.7
2016-Aug-18 20:34N 37°32' E 023°45'2020.0
2016-Aug-18 19:34N 37°51' E 023°37'6 6.0
2016-Aug-18 18:33N 37°57' E 023°38'0 0.0
2016-Aug-18 17:34N 37°57' E 023°38'0 0.0
2016-Aug-18 16:33N 37°57' E 023°38'1312.7
2016-Aug-18 15:34N 37°45' E 023°43'2323.0
2016-Aug-18 14:33N 37°22' E 023°49'2221.9
2016-Aug-18 13:33N 37°01' E 023°54'2222.0
2016-Aug-18 12:33N 36°39' E 023°58'2222.2
2016-Aug-18 11:33N 36°17' E 024°03'2922.3
2016-Aug-18 10:16N 35°49' E 024°10'41 4.1
2016-Aug-18 00:09N 36°29' E 024°01'1422.0
2016-Aug-17 23:31N 36°43' E 023°58'2121.5
2016-Aug-17 22:34N 37°03' E 023°52'2121.4
2016-Aug-17 21:33N 37°24' E 023°47'2020.3
2016-Aug-17 20:33N 37°43' E 023°40'1413.7
2016-Aug-17 19:34N 37°57' E 023°38'0 0.0
2016-Aug-17 18:33N 37°57' E 023°38'0 0.0
2016-Aug-17 17:34N 37°57' E 023°38'0 0.0
2016-Aug-17 16:33N 37°57' E 023°38'1312.7
2016-Aug-17 15:34N 37°45' E 023°43'2322.8
2016-Aug-17 14:33N 37°23' E 023°49'87 6.5
2016-Aug-17 01:11N 35°56' E 024°08'6120.9
2016-Aug-16 22:16N 36°56' E 023°54'1521.3
2016-Aug-16 21:33N 37°11' E 023°51'2120.4
2016-Aug-16 20:33N 37°31' E 023°45'2019.9
2016-Aug-16 19:33N 37°50' E 023°37'7 7.3
2016-Aug-16 18:33N 37°57' E 023°38'0 0.0
2016-Aug-16 17:33N 37°57' E 023°38'0 0.0
2016-Aug-16 16:33N 37°57' E 023°38'0 0.0
2016-Aug-16 15:33N 37°57' E 023°38'0 0.0
2016-Aug-16 14:33N 37°57' E 023°38'0 0.0
2016-Aug-16 13:33N 37°57' E 023°38'0 0.0
2016-Aug-16 12:33N 37°57' E 023°38'0 0.0
2016-Aug-16 11:33N 37°57' E 023°38'0 0.0
2016-Aug-16 10:33N 37°57' E 023°38'0 0.0
2016-Aug-16 09:33N 37°57' E 023°38'0 0.0
2016-Aug-16 08:33N 37°57' E 023°38'0 0.0
2016-Aug-16 07:33N 37°57' E 023°38'0 0.0
2016-Aug-16 04:33N 37°57' E 023°38'0 0.0
2016-Aug-16 03:33N 37°57' E 023°38'6 6.2
2016-Aug-16 02:33N 37°51' E 023°40'2120.8
2016-Aug-16 01:33N 37°31' E 023°48'2120.4
2016-Aug-16 00:32N 37°10' E 023°52'6 0.2
2016-Aug-14 21:15N 37°16' E 023°49'1520.9
2016-Aug-14 20:33N 37°31' E 023°45'2020.4
2016-Aug-14 19:33N 37°50' E 023°37'7 7.0
2016-Aug-14 18:33N 37°57' E 023°38'0 0.0
2016-Aug-14 17:34N 37°57' E 023°38'  
Track history (hours):
 
Tides and Currents Weather Stations Pressure Air Temp Water Temp Dewpoint Dewpoint Depression Visibility Wind Speed Wind Dir Waves Ship Positions

Blue Galaxy

Last reported at 2016-Aug-24 17:33 UTC. Time now 2016-Aug-24 17:56 UTC.
Position N 37°57' E 023°38'.

Length 192 m; draft 6.7 m.

Type: Passenger vessel. MMSI: 239672000.

Date/timePositionNaut miles runAvg speedWind from/ knotsBaromVisibWave heightAir tempDewpointWater temp
2016-Aug-24 17:33N 37°57' E 023°38'0 0.3
2016-Aug-24 16:34N 37°57' E 023°38'1716.9
2016-Aug-24 15:33N 37°41' E 023°45'25 1.4
2016-Aug-23 21:20N 37°16' E 023°49'1620.6
2016-Aug-23 20:33N 37°32' E 023°45'2020.4
2016-Aug-23 19:34N 37°51' E 023°37'6 6.0
2016-Aug-23 18:33N 37°57' E 023°38'0 0.0
2016-Aug-23 17:33N 37°57' E 023°38'0 0.0
2016-Aug-23 16:33N 37°57' E 023°38'0 0.0
2016-Aug-23 15:33N 37°57' E 023°38'0 0.0
2016-Aug-23 14:33N 37°57' E 023°38'0 0.0
2016-Aug-23 13:33N 37°57' E 023°38'0 0.0
2016-Aug-23 12:33N 37°57' E 023°38'0 0.0
2016-Aug-23 11:33N 37°57' E 023°38'0 0.0
2016-Aug-23 10:33N 37°57' E 023°38'0 0.0
2016-Aug-23 09:33N 37°57' E 023°38'0 0.0
2016-Aug-23 08:33N 37°57' E 023°38'0 0.0
2016-Aug-23 07:33N 37°57' E 023°38'0 0.0
2016-Aug-23 06:33N 37°57' E 023°38'0 0.0
2016-Aug-23 05:33N 37°57' E 023°38'0 0.0
2016-Aug-23 04:33N 37°57' E 023°38'0 0.0
2016-Aug-23 03:33N 37°57' E 023°38'7 6.7
2016-Aug-23 02:34N 37°50' E 023°40'2020.1
2016-Aug-23 01:33N 37°31' E 023°48'2120.7
2016-Aug-23 00:31N 37°10' E 023°51'2020.3
2016-Aug-22 23:31N 36°50' E 023°56'26 1.0
2016-Aug-21 21:23N 37°15' E 023°49'1720.2
2016-Aug-21 20:34N 37°31' E 023°45'2020.2
2016-Aug-21 19:34N 37°50' E 023°37'7 6.6
2016-Aug-21 18:33N 37°57' E 023°38'0 0.0
2016-Aug-21 17:33N 37°57' E 023°38'0 0.0
2016-Aug-21 16:33N 37°57' E 023°38'1313.1
2016-Aug-21 15:33N 37°44' E 023°43'2322.3
2016-Aug-21 14:32N 37°22' E 023°49'6 0.4
2016-Aug-20 21:20N 37°16' E 023°49'1620.5
2016-Aug-20 20:33N 37°32' E 023°45'2019.9
2016-Aug-20 19:33N 37°50' E 023°36'7 6.6
2016-Aug-20 18:33N 37°57' E 023°38'0 0.0
2016-Aug-20 17:33N 37°57' E 023°38'0 0.0
2016-Aug-20 16:33N 37°57' E 023°38'1414.3
2016-Aug-20 15:33N 37°43' E 023°44'2222.3
2016-Aug-20 14:33N 37°21' E 023°50'70 5.0
2016-Aug-20 00:33N 36°12' E 024°04'2121.0
2016-Aug-19 23:33N 36°33' E 023°60'2420.9
2016-Aug-19 22:24N 36°56' E 023°54'1821.4
2016-Aug-19 21:33N 37°14' E 023°50'2121.0
2016-Aug-19 20:33N 37°35' E 023°44'2020.1
2016-Aug-19 19:33N 37°54' E 023°37'3 3.0
2016-Aug-19 18:33N 37°57' E 023°38'0 0.0
2016-Aug-19 17:33N 37°57' E 023°38'0 0.0
2016-Aug-19 16:33N 37°57' E 023°38'1313.1
2016-Aug-19 15:33N 37°44' E 023°43'2322.7
2016-Aug-19 14:32N 37°21' E 023°50'2322.0
2016-Aug-19 13:29N 36°59' E 023°54'89 8.2
2016-Aug-19 02:33N 35°31' E 024°13'2120.0
2016-Aug-19 01:29N 35°52' E 024°12'1920.6
2016-Aug-19 00:33N 36°11' E 024°06'2020.6
2016-Aug-18 23:33N 36°31' E 024°01'2020.6
2016-Aug-18 22:33N 36°51' E 023°55'2121.4
2016-Aug-18 21:33N 37°12' E 023°50'2120.7
2016-Aug-18 20:34N 37°32' E 023°45'2020.0
2016-Aug-18 19:34N 37°51' E 023°37'6 6.0
2016-Aug-18 18:33N 37°57' E 023°38'0 0.0
2016-Aug-18 17:34N 37°57' E 023°38'0 0.0
2016-Aug-18 16:33N 37°57' E 023°38'1312.7
2016-Aug-18 15:34N 37°45' E 023°43'2323.0
2016-Aug-18 14:33N 37°22' E 023°49'2221.9
2016-Aug-18 13:33N 37°01' E 023°54'2222.0
2016-Aug-18 12:33N 36°39' E 023°58'2222.2
2016-Aug-18 11:33N 36°17' E 024°03'2922.3
2016-Aug-18 10:16N 35°49' E 024°10'41 4.1
2016-Aug-18 00:09N 36°29' E 024°01'1422.0
2016-Aug-17 23:31N 36°43' E 023°58'2121.5
2016-Aug-17 22:34N 37°03' E 023°52'2121.4
2016-Aug-17 21:33N 37°24' E 023°47'2020.3
2016-Aug-17 20:33N 37°43' E 023°40'1413.7
2016-Aug-17 19:34N 37°57' E 023°38'0 0.0
2016-Aug-17 18:33N 37°57' E 023°38'0 0.0
2016-Aug-17 17:34N 37°57' E 023°38'0 0.0
2016-Aug-17 16:33N 37°57' E 023°38'1312.7
2016-Aug-17 15:34N 37°45' E 023°43'2322.8
2016-Aug-17 14:33N 37°23' E 023°49'87 6.5
2016-Aug-17 01:11N 35°56' E 024°08'6120.9
2016-Aug-16 22:16N 36°56' E 023°54'1521.3
2016-Aug-16 21:33N 37°11' E 023°51'2120.4
2016-Aug-16 20:33N 37°31' E 023°45'2019.9
2016-Aug-16 19:33N 37°50' E 023°37'7 7.3
2016-Aug-16 18:33N 37°57' E 023°38'0 0.0
2016-Aug-16 17:33N 37°57' E 023°38'0 0.0
2016-Aug-16 16:33N 37°57' E 023°38'0 0.0
2016-Aug-16 15:33N 37°57' E 023°38'0 0.0
2016-Aug-16 14:33N 37°57' E 023°38'0 0.0
2016-Aug-16 13:33N 37°57' E 023°38'0 0.0
2016-Aug-16 12:33N 37°57' E 023°38'0 0.0
2016-Aug-16 11:33N 37°57' E 023°38'0 0.0
2016-Aug-16 10:33N 37°57' E 023°38'0 0.0
2016-Aug-16 09:33N 37°57' E 023°38'0 0.0
2016-Aug-16 08:33N 37°57' E 023°38'0 0.0
2016-Aug-16 07:33N 37°57' E 023°38'0 0.0
2016-Aug-16 04:33N 37°57' E 023°38'0 0.0
2016-Aug-16 03:33N 37°57' E 023°38'6 6.2
2016-Aug-16 02:33N 37°51' E 023°40'2120.8
2016-Aug-16 01:33N 37°31' E 023°48'2120.4
2016-Aug-16 00:32N 37°10' E 023°52'6 0.2
2016-Aug-14 21:15N 37°16' E 023°49'1520.9
2016-Aug-14 20:33N 37°31' E 023°45'2020.4
2016-Aug-14 19:33N 37°50' E 023°37'7 7.0
2016-Aug-14 18:33N 37°57' E 023°38'0 0.0
2016-Aug-14 17:34N 37°57' E 023°38'  

Dump ship's entire track history